LIRN/NAP METAR and TAF weather

Enter ICAO airport designator
Station Type Date Time Source
LIRN METAR 2021/06/24 05:50 UTC NOAA

LIRN 240550Z VRB02KT 8000 NSC 28/17 Q1018 NOSIG


Station Type Date Time Source
LIRN Decoded METAR 2021/06/24 05:50 UTC NOAA

Napoli / Capodichino, Italy (LIRN) 40-51N 014-18E 72M
Jun 24, 2021 - 01:50 AM EDT / 2021.06.24 0550 UTC
Wind: Variable at 2 MPH (2 KT):0
Visibility: 4 mile(s):0
Temperature: 82 F (28 C)
Dew Point: 62 F (17 C)
Relative Humidity: 51%
Pressure (altimeter): 30.06 in. Hg (1018 hPa)
ob: LIRN 240550Z VRB02KT 8000 NSC 28/17 Q1018 NOSIG
cycle: 6

Station Type Date Time Source
LIRN TAF 2021/06/24 06:21 UTC NOAA

TAF LIRN 240500Z 2406/2506 23010KT 9999 SCT040
BECMG 2418/2420 VRB05KT

Example: see airport list